Time;durP1;ratioP1;P1;durP2;ratioP2;P2;SDS_P1;SDS_P2;PMS_P1;PMS_P2;Temp;Humidity;BMP_temperature;BMP_pressure;BME280_temperature;BME280_humidity;BME280_pressure;Samples;Min_cycle;Max_cycle;Signal;HPM_P1;HPM_P2
2021/08/22 00:01:00;;;;;;;12.43;5.38;;;;;;;18.75;94.58;94994.59;10328117;28;20041;-72
2021/08/22 00:06:00;;;;;;;7.67;4.57;;;;;;;18.81;95.37;95006.13;10328773;28;20486;-72
2021/08/22 00:11:00;;;;;;;8.13;5.30;;;;;;;18.59;94.41;95024.16;10328694;28;20280;-72
2021/08/22 00:16:02;;;;;;;7.43;4.80;;;;;;;18.31;99.10;95010.00;10328464;28;20093;-72
2021/08/22 00:21:02;;;;;;;8.27;6.43;;;;;;;17.78;100.00;95033.44;10328444;28;20092;-72
2021/08/22 00:26:03;;;;;;;8.87;5.97;;;;;;;17.63;100.00;95042.00;10328265;28;20081;-72
2021/08/22 00:31:03;;;;;;;9.32;6.72;;;;;;;17.58;100.00;95045.63;10328246;28;20114;-72
2021/08/22 00:36:05;;;;;;;11.82;7.00;;;;;;;17.54;100.00;95041.91;10328217;28;20046;-72
2021/08/22 00:41:05;;;;;;;11.30;6.40;;;;;;;17.64;100.00;95040.84;10327886;28;20038;-72
2021/08/22 00:46:05;;;;;;;11.97;6.90;;;;;;;17.73;100.00;95039.00;10327125;28;20285;-72
2021/08/22 00:51:06;;;;;;;8.97;6.73;;;;;;;17.86;100.00;95027.25;10327507;28;20041;-72
2021/08/22 00:56:09;;;;;;;10.40;7.20;;;;;;;17.84;100.00;95026.75;10327271;28;20281;-72
2021/08/22 01:01:16;;;;;;;10.18;7.05;;;;;;;17.77;100.00;95019.03;10327157;28;20702;-72
2021/08/22 01:06:20;;;;;;;9.33;6.63;;;;;;;17.99;100.00;95016.63;10328193;28;20117;-72
2021/08/22 01:11:23;;;;;;;13.63;7.68;;;;;;;18.07;100.00;95024.81;10326820;28;20046;-72
2021/08/22 01:16:28;;;;;;;9.02;7.05;;;;;;;18.16;100.00;95015.88;10325214;28;20026;-72
2021/08/22 01:21:29;;;;;;;15.57;7.13;;;;;;;18.17;100.00;95017.47;10325527;28;20112;-72
2021/08/22 01:26:37;;;;;;;10.33;6.43;;;;;;;18.02;100.00;95019.50;10326516;28;20039;-72
2021/08/22 01:31:40;;;;;;;;;;;;;;;17.98;100.00;95015.81;10326717;28;20030;-72
2021/08/22 01:36:41;;;;;;;8.38;6.35;;;;;;;17.96;100.00;95023.47;10326077;28;19930;-72
2021/08/22 01:41:43;;;;;;;10.50;7.20;;;;;;;17.82;100.00;95020.81;10324792;28;20066;-72
2021/08/22 01:46:44;;;;;;;12.35;6.18;;;;;;;17.76;100.00;95019.34;10325527;28;20041;-72
2021/08/22 01:51:46;;;;;;;8.70;6.03;;;;;;;17.82;100.00;95017.28;10325895;28;20450;-72
2021/08/22 01:56:46;;;;;;;9.48;6.97;;;;;;;17.56;100.00;95024.19;10326950;28;20030;-72
2021/08/22 02:01:47;;;;;;;11.67;8.37;;;;;;;17.17;100.00;95035.75;10334032;28;20060;-72
2021/08/22 02:07:13;;;;;;;12.13;6.87;;;;;;;17.06;100.00;95035.97;10333721;28;20069;-72
2021/08/22 02:12:17;;;;;;;9.60;7.05;;;;;;;17.12;100.00;95025.81;10323020;28;20061;-72
2021/08/22 02:17:21;;;;;;;8.38;7.32;;;;;;;17.18;100.00;95024.56;10333057;28;20037;-72
2021/08/22 02:22:22;;;;;;;12.70;7.97;;;;;;;17.17;100.00;95019.44;10333214;28;20030;-72
2021/08/22 02:27:23;;;;;;;9.55;7.80;;;;;;;17.22;100.00;95011.97;10332753;28;20058;-72
2021/08/22 02:32:24;;;;;;;14.23;7.10;;;;;;;17.28;100.00;95014.59;10332890;28;20106;-72
2021/08/22 02:37:24;;;;;;;10.63;7.72;;;;;;;17.27;100.00;95015.69;10331144;28;20498;-72
2021/08/22 02:42:25;;;;;;;10.18;7.13;;;;;;;17.32;100.00;95010.94;10330600;28;20044;-72
2021/08/22 02:47:25;;;;;;;10.57;7.82;;;;;;;17.31;100.00;95008.53;10331792;28;20034;-72
2021/08/22 02:52:26;;;;;;;11.17;6.70;;;;;;;17.34;100.00;95014.13;10331040;28;20109;-72
2021/08/22 02:57:26;;;;;;;8.67;6.77;;;;;;;17.37;100.00;95008.09;10331967;28;20285;-72
2021/08/22 03:02:27;;;;;;;8.50;6.13;;;;;;;17.29;100.00;95016.16;10331497;28;20501;-72
2021/08/22 03:07:27;;;;;;;11.93;6.93;;;;;;;17.05;100.00;95017.28;10330766;28;20077;-72
2021/08/22 03:12:27;;;;;;;11.33;6.83;;;;;;;16.89;100.00;95019.53;10331228;28;20470;-72
2021/08/22 03:17:28;;;;;;;12.00;7.13;;;;;;;16.99;100.00;95024.72;10331102;28;20087;-72
2021/08/22 03:22:29;;;;;;;8.80;6.73;;;;;;;16.85;100.00;95030.16;10330654;28;20390;-72
2021/08/22 03:27:29;;;;;;;13.15;6.28;;;;;;;16.85;100.00;95035.59;10330686;28;20325;-72
2021/08/22 03:32:29;;;;;;;15.30;8.23;;;;;;;16.75;100.00;95033.13;10330444;28;20480;-72
2021/08/22 03:37:30;;;;;;;12.80;7.47;;;;;;;16.72;100.00;95025.59;10330330;28;20343;-72
2021/08/22 03:42:30;;;;;;;11.03;7.33;;;;;;;16.67;100.00;95029.19;10329796;28;20030;-72
2021/08/22 03:47:30;;;;;;;15.07;7.70;;;;;;;16.67;100.00;95039.25;10329344;28;20046;-72
2021/08/22 03:52:31;;;;;;;15.32;8.43;;;;;;;16.69;100.00;95040.56;10328870;28;20273;-72
2021/08/22 03:57:31;;;;;;;14.20;7.33;;;;;;;16.74;100.00;95045.06;10329272;28;20058;-72
2021/08/22 04:02:31;;;;;;;9.77;7.10;;;;;;;16.91;100.00;95044.47;10329207;28;20026;-72
2021/08/22 04:07:33;;;;;;;10.87;7.10;;;;;;;16.99;100.00;95048.38;10328756;28;20042;-72
2021/08/22 04:12:36;;;;;;;13.93;7.43;;;;;;;17.09;100.00;95050.84;10328763;28;20066;-72
2021/08/22 04:17:36;;;;;;;10.15;6.85;;;;;;;16.67;100.00;95052.84;10328897;28;20062;-72
2021/08/22 04:22:37;;;;;;;10.60;7.45;;;;;;;16.42;100.00;95057.66;10328006;28;20168;-72
2021/08/22 04:27:39;;;;;;;10.60;7.03;;;;;;;16.57;100.00;95062.78;10328026;28;20390;-72
2021/08/22 04:32:40;;;;;;;17.02;7.50;;;;;;;16.64;100.00;95061.59;10328041;28;20165;-72
2021/08/22 04:37:42;;;;;;;17.92;9.35;;;;;;;16.77;100.00;95070.81;10310288;28;20883;-72
2021/08/22 04:42:42;;;;;;;18.33;9.88;;;;;;;16.95;100.00;95066.38;10327393;28;20034;-72
2021/08/22 04:47:43;;;;;;;14.77;9.35;;;;;;;17.13;100.00;95067.34;10327371;28;20026;-71
2021/08/22 04:52:43;;;;;;;10.40;8.13;;;;;;;17.34;100.00;95073.91;10327447;28;20018;-72
2021/08/22 04:57:43;;;;;;;11.20;7.57;;;;;;;17.62;100.00;95079.22;10326886;28;20022;-72
2021/08/22 05:02:44;;;;;;;11.03;7.33;;;;;;;17.92;100.00;95083.13;10325326;28;20027;-72
2021/08/22 05:07:44;;;;;;;13.73;6.73;;;;;;;18.25;100.00;95085.53;10325442;28;20789;-71
2021/08/22 05:12:44;;;;;;;9.93;7.43;;;;;;;18.62;100.00;95083.41;10326224;28;20398;-71
2021/08/22 05:17:45;;;;;;;14.37;7.57;;;;;;;19.08;100.00;95083.22;10326541;28;20108;-71
2021/08/22 05:22:46;;;;;;;12.37;7.43;;;;;;;19.71;100.00;95070.06;10326479;28;20477;-72
2021/08/22 05:27:46;;;;;;;15.57;7.35;;;;;;;20.30;97.94;95072.22;10308389;28;20482;-71
2021/08/22 05:32:46;;;;;;;12.23;7.47;;;;;;;20.56;95.35;95079.47;10325183;28;20022;-71
2021/08/22 05:37:47;;;;;;;9.70;6.95;;;;;;;20.98;91.43;95076.84;10325720;28;20105;-71
2021/08/22 05:42:47;;;;;;;12.23;6.67;;;;;;;20.75;92.14;95076.38;10325757;28;20045;-72
2021/08/22 05:47:47;;;;;;;12.17;7.73;;;;;;;20.82;92.31;95081.31;10325192;28;20088;-71
2021/08/22 05:52:48;;;;;;;11.27;7.63;;;;;;;21.05;90.79;95084.53;10325905;28;20033;-71
2021/08/22 05:57:48;;;;;;;16.30;7.18;;;;;;;22.33;83.52;95089.56;10325812;28;20261;-71
2021/08/22 06:02:49;;;;;;;12.13;6.43;;;;;;;23.44;73.99;95080.50;10325416;28;20570;-71
2021/08/22 06:07:49;;;;;;;8.87;6.43;;;;;;;24.14;65.23;95081.28;10325350;28;20305;-71
2021/08/22 06:12:49;;;;;;;14.80;5.80;;;;;;;25.03;59.74;95077.25;10325364;28;20034;-71
2021/08/22 06:17:50;;;;;;;11.53;5.40;;;;;;;25.91;53.31;95075.97;10325137;28;20085;-71
2021/08/22 06:22:50;;;;;;;13.53;5.53;;;;;;;26.69;49.97;95068.69;10325401;28;20030;-70
2021/08/22 06:27:50;;;;;;;5.73;4.80;;;;;;;26.32;49.03;95067.28;10324725;28;20058;-72
2021/08/22 06:32:51;;;;;;;9.37;4.97;;;;;;;27.31;47.07;95068.47;10325114;28;20645;-73
2021/08/22 06:37:51;;;;;;;11.13;4.77;;;;;;;27.19;45.39;95061.19;10325222;28;20027;-73
2021/08/22 06:42:52;;;;;;;8.25;4.57;;;;;;;27.22;44.79;95065.97;10326221;28;20573;-72
2021/08/22 06:47:53;;;;;;;5.57;4.60;;;;;;;27.85;43.87;95063.66;10332223;28;20029;-73
2021/08/22 06:52:53;;;;;;;8.25;4.63;;;;;;;29.01;41.37;95062.81;10331820;28;20057;-73
2021/08/22 06:57:54;;;;;;;9.57;4.60;;;;;;;29.82;39.11;95057.31;10331798;28;20053;-73
2021/08/22 07:02:54;;;;;;;8.30;4.93;;;;;;;30.61;36.61;95054.00;10331381;28;20033;-73
2021/08/22 07:07:54;;;;;;;5.80;4.23;;;;;;;31.22;35.71;95062.31;10330825;28;20041;-70
2021/08/22 07:12:55;;;;;;;9.33;5.13;;;;;;;32.07;34.62;95067.22;10331107;28;20030;-71
2021/08/22 07:17:55;;;;;;;6.30;4.37;;;;;;;32.46;33.69;95071.78;10331099;28;20388;-70
2021/08/22 07:22:55;;;;;;;16.17;5.17;;;;;;;32.94;32.80;95059.13;10330657;28;20069;-70
2021/08/22 07:27:56;;;;;;;7.90;5.13;;;;;;;33.65;31.35;95062.44;10330383;28;20085;-70
2021/08/22 07:33:00;;;;;;;11.02;5.68;;;;;;;33.57;31.05;95056.13;10330075;28;20036;-73
2021/08/22 07:38:01;;;;;;;9.15;4.75;;;;;;;34.53;29.91;95060.94;10329464;28;20825;-70
2021/08/22 07:43:01;;;;;;;12.48;5.75;;;;;;;34.69;29.37;95058.28;10328632;28;20056;-71
2021/08/22 07:48:02;;;;;;;10.90;4.80;;;;;;;32.00;32.03;95056.94;10329755;28;20039;-71
2021/08/22 07:53:03;;;;;;;10.30;4.10;;;;;;;32.99;31.69;95058.66;10329344;28;20030;-71
2021/08/22 07:58:03;;;;;;;6.63;4.25;;;;;;;33.66;29.68;95047.28;10310807;28;20114;-71
2021/08/22 08:03:03;;;;;;;9.27;4.83;;;;;;;33.54;31.30;95049.41;10329065;28;20080;-71
2021/08/22 08:08:04;;;;;;;9.23;4.23;;;;;;;35.24;29.30;95042.22;10328602;28;20042;-71
2021/08/22 08:13:04;;;;;;;7.43;4.10;;;;;;;34.60;29.31;95048.88;10328277;28;20554;-71
2021/08/22 08:18:05;;;;;;;4.87;4.00;;;;;;;35.83;27.91;95045.53;10326917;28;20030;-71
2021/08/22 08:23:06;;;;;;;8.18;4.35;;;;;;;35.61;27.42;95033.97;10326706;28;20709;-71
2021/08/22 08:28:06;;;;;;;6.50;4.67;;;;;;;35.00;28.56;95035.88;10329012;28;20030;-71
2021/08/22 08:33:08;;;;;;;7.73;4.10;;;;;;;36.51;27.38;95037.69;10329244;28;20289;-71
2021/08/22 08:38:08;;;;;;;11.60;3.88;;;;;;;37.33;26.00;95022.91;10329102;28;20026;-71
2021/08/22 08:43:11;;;;;;;8.97;3.67;;;;;;;37.82;25.38;95033.19;10329096;28;20026;-71
2021/08/22 08:48:17;;;;;;;7.13;3.85;;;;;;;38.04;25.31;95024.13;10342110;28;20037;-71
2021/08/22 08:53:20;;;;;;;7.03;3.08;;;;;;;38.86;24.32;95015.19;10328371;28;20445;-71
2021/08/22 08:58:20;;;;;;;8.20;3.10;;;;;;;39.02;23.37;95014.28;10328548;28;20117;-71
2021/08/22 09:03:23;;;;;;;8.85;3.00;;;;;;;37.86;23.71;95008.63;10328281;28;20088;-71
2021/08/22 09:08:45;;;;;;;4.85;2.60;;;;;;;37.98;24.62;95006.28;10310139;28;20522;-71
2021/08/22 09:14:04;;;;;;;5.45;2.58;;;;;;;39.89;22.59;95006.41;10327792;28;20036;-72
2021/08/22 09:19:42;;;;;;;4.47;3.20;;;;;;;39.01;22.56;95000.69;10327822;28;20132;-71
2021/08/22 09:25:07;;;;;;;6.80;2.88;;;;;;;38.36;23.11;94985.91;10327698;28;20054;-72
2021/08/22 09:30:45;;;;;;;2.90;2.28;;;;;;;37.94;23.49;95001.59;10327688;28;20505;-72
2021/08/22 09:36:24;;;;;;;5.30;2.92;;;;;;;38.89;22.12;94989.03;10327386;28;20037;-72
2021/08/22 09:42:02;;;;;;;5.55;3.25;;;;;;;40.38;20.91;94984.47;10312834;28;20197;-72
2021/08/22 09:47:21;;;;;;;10.25;2.50;;;;;;;39.56;21.16;94978.69;10326814;28;20035;-72
2021/08/22 09:52:59;;;;;;;2.63;2.28;;;;;;;40.33;20.40;94972.56;10327131;28;20034;-72
2021/08/22 09:58:24;;;;;;;4.57;2.40;;;;;;;41.75;19.91;94967.44;10309418;28;20044;-72
2021/08/22 10:03:36;;;;;;;4.07;2.25;;;;;;;42.16;18.95;94962.34;10326883;28;20022;-72
2021/08/22 10:08:48;;;;;;;11.10;3.75;;;;;;;42.88;19.14;94958.09;10309188;28;20125;-72
2021/08/22 10:13:49;;;;;;;3.85;2.10;;;;;;;43.89;18.07;94944.38;10326524;28;20041;-71
2021/08/22 10:18:49;;;;;;;6.00;2.40;;;;;;;43.98;17.39;94956.41;10329194;28;20027;-71
2021/08/22 10:23:51;;;;;;;5.53;2.65;;;;;;;44.23;17.07;94947.78;10334252;28;20280;-71
2021/08/22 10:28:59;;;;;;;5.38;2.65;;;;;;;41.99;18.33;94937.31;10333915;28;20034;-71
2021/08/22 10:34:20;;;;;;;5.20;2.78;;;;;;;41.74;18.65;94938.44;10338646;28;20145;-71
2021/08/22 10:39:26;;;;;;;4.82;2.63;;;;;;;42.45;17.43;94929.91;10333694;28;20027;-71
2021/08/22 10:44:33;;;;;;;3.80;2.67;;;;;;;43.24;16.64;94936.50;10333434;28;20478;-71
2021/08/22 10:49:52;;;;;;;5.57;2.47;;;;;;;43.20;16.46;94934.59;10315934;28;20022;-71
2021/08/22 10:55:13;;;;;;;3.50;2.28;;;;;;;43.63;16.18;94923.09;10333144;28;20510;-71
2021/08/22 11:00:23;;;;;;;4.97;2.08;;;;;;;43.72;17.27;94915.78;10332992;28;20044;-71
2021/08/22 11:05:25;;;;;;;3.67;2.30;;;;;;;44.49;15.95;94913.91;10332518;28;20062;-73
2021/08/22 11:10:29;;;;;;;6.45;2.17;;;;;;;45.39;15.25;94911.47;10332599;28;20034;-71
2021/08/22 11:15:30;;;;;;;;;;;;;;;44.68;15.65;94909.56;10332906;28;20038;-71
2021/08/22 11:20:32;;;;;;;6.32;2.80;;;;;;;41.13;18.11;94913.72;10332227;28;20324;-71
2021/08/22 11:25:34;;;;;;;4.15;3.22;;;;;;;36.88;20.48;94905.97;10331754;28;20038;-73
2021/08/22 11:30:35;;;;;;;4.25;3.63;;;;;;;35.54;22.53;94903.53;10331970;28;20018;-73
2021/08/22 11:35:37;;;;;;;5.85;3.55;;;;;;;34.36;24.23;94898.94;10331333;28;20026;-73
2021/08/22 11:40:39;;;;;;;5.97;3.40;;;;;;;33.81;24.28;94898.19;10331431;28;20022;-72
2021/08/22 11:45:45;;;;;;;5.85;3.65;;;;;;;33.34;24.98;94893.22;10330998;28;20034;-72
2021/08/22 11:50:46;;;;;;;7.83;4.17;;;;;;;32.84;25.24;94888.22;10330792;28;20077;-72
2021/08/22 11:55:47;;;;;;;9.43;4.10;;;;;;;32.52;25.45;94892.09;10330851;28;20034;-71
2021/08/22 12:00:52;;;;;;;4.57;3.60;;;;;;;31.68;26.10;94888.38;10330966;28;20689;-71
2021/08/22 12:05:58;;;;;;;8.02;3.72;;;;;;;31.29;26.66;94881.78;10330138;28;20724;-72
2021/08/22 12:11:13;;;;;;;6.80;3.90;;;;;;;30.92;26.99;94885.88;10330103;28;20453;-71
2021/08/22 12:16:31;;;;;;;10.93;3.88;;;;;;;30.54;27.23;94884.81;10339564;28;20026;-72
2021/08/22 12:21:33;;;;;;;4.93;4.03;;;;;;;30.24;27.46;94892.34;10329473;28;20054;-71
2021/08/22 12:26:33;;;;;;;7.70;4.00;;;;;;;29.82;28.21;94886.34;10329661;28;20030;-72
2021/08/22 12:31:39;;;;;;;6.07;4.10;;;;;;;29.94;27.51;94878.88;10329408;28;20026;-71
2021/08/22 12:36:42;;;;;;;5.85;4.10;;;;;;;30.13;27.86;94875.69;10329190;28;20029;-71
2021/08/22 12:41:47;;;;;;;5.60;3.63;;;;;;;30.24;27.11;94870.16;10328511;28;20029;-71
2021/08/22 12:46:50;;;;;;;6.28;3.67;;;;;;;30.15;26.95;94872.53;10328835;28;20045;-71
2021/08/22 12:51:52;;;;;;;9.77;5.00;;;;;;;30.41;27.59;94865.78;10328886;28;20108;-71
2021/08/22 12:56:54;;;;;;;4.75;3.80;;;;;;;29.83;27.35;94854.69;10328371;28;20022;-71
2021/08/22 13:01:55;;;;;;;5.43;3.83;;;;;;;29.64;27.62;94858.63;10328571;28;20460;-71
2021/08/22 13:06:57;;;;;;;7.97;3.53;;;;;;;29.84;26.76;94852.75;10327885;28;20066;-71
2021/08/22 13:11:57;;;;;;;3.78;2.95;;;;;;;29.85;27.20;94843.25;10327749;28;20038;-71
2021/08/22 13:16:57;;;;;;;7.67;4.23;;;;;;;29.81;27.43;94837.66;10327840;28;20104;-71
2021/08/22 13:21:58;;;;;;;6.23;3.67;;;;;;;29.88;27.53;94836.13;10327757;28;20034;-71
2021/08/22 13:26:58;;;;;;;5.30;3.80;;;;;;;29.83;27.46;94835.31;10327514;28;20030;-71
2021/08/22 13:31:58;;;;;;;4.10;3.07;;;;;;;29.79;27.44;94833.69;10327423;28;20498;-71
2021/08/22 13:36:59;;;;;;;4.67;3.37;;;;;;;29.73;26.64;94826.97;10327486;28;20021;-71
2021/08/22 13:42:00;;;;;;;4.83;3.17;;;;;;;29.72;27.23;94828.94;10327068;28;20022;-71
2021/08/22 13:47:01;;;;;;;8.57;3.53;;;;;;;29.57;27.46;94824.59;10327006;28;20097;-71
2021/08/22 13:52:01;;;;;;;4.38;3.05;;;;;;;29.17;28.15;94829.25;10327112;28;20026;-71
2021/08/22 13:57:02;;;;;;;4.22;3.60;;;;;;;29.03;28.14;94835.53;10334579;28;20021;-71
2021/08/22 14:02:04;;;;;;;5.68;3.63;;;;;;;28.86;28.62;94834.25;10335027;28;20572;-72
2021/08/22 14:07:04;;;;;;;6.10;4.10;;;;;;;28.78;28.71;94827.91;10333616;28;20042;-71
2021/08/22 14:12:05;;;;;;;6.50;3.50;;;;;;;28.68;29.09;94823.94;10331855;28;20081;-71
2021/08/22 14:17:06;;;;;;;3.47;3.17;;;;;;;28.69;28.74;94813.66;10331895;28;20512;-71
2021/08/22 14:22:06;;;;;;;5.00;3.00;;;;;;;28.62;27.83;94814.38;10332007;28;20465;-71
2021/08/22 14:27:07;;;;;;;6.83;3.60;;;;;;;28.56;27.33;94813.94;10331447;28;20030;-71
2021/08/22 14:32:10;;;;;;;4.88;3.20;;;;;;;28.50;27.61;94809.19;10330996;28;20042;-71
2021/08/22 14:37:10;;;;;;;11.30;4.15;;;;;;;28.51;27.82;94813.53;10331274;28;20513;-71
2021/08/22 14:42:11;;;;;;;3.80;3.40;;;;;;;28.32;28.98;94809.88;10330781;28;20034;-71
2021/08/22 14:47:11;;;;;;;4.50;3.40;;;;;;;28.45;29.13;94808.38;10330840;28;20034;-71
2021/08/22 14:52:11;;;;;;;11.20;4.30;;;;;;;28.58;28.79;94813.56;10331045;28;20146;-71
2021/08/22 14:57:12;;;;;;;8.10;4.60;;;;;;;28.63;28.15;94804.94;10330927;28;20037;-71
2021/08/22 15:02:12;;;;;;;5.93;3.87;;;;;;;28.60;28.51;94802.91;10330420;28;20410;-71
2021/08/22 15:07:13;;;;;;;5.45;3.67;;;;;;;28.52;27.92;94793.00;10290032;28;1202847;-71
2021/08/22 15:12:13;;;;;;;18.45;5.13;;;;;;;28.22;28.53;94791.28;10332377;28;20493;-71
2021/08/22 15:17:14;;;;;;;4.55;3.33;;;;;;;28.25;29.52;94796.81;10332357;28;20030;-72
2021/08/22 15:22:15;;;;;;;5.18;3.58;;;;;;;28.29;29.50;94794.09;10332110;28;20030;-72
2021/08/22 15:27:15;;;;;;;6.32;3.28;;;;;;;28.24;29.75;94795.22;10331523;28;20031;-72
2021/08/22 15:32:15;;;;;;;5.80;4.00;;;;;;;28.23;30.18;94803.91;10331516;28;20090;-72
2021/08/22 15:37:16;;;;;;;5.70;3.90;;;;;;;28.24;31.51;94799.97;10331798;28;20114;-72
2021/08/22 15:42:17;;;;;;;9.77;4.35;;;;;;;28.26;31.96;94798.41;10331396;28;20034;-72
2021/08/22 15:47:17;;;;;;;7.33;3.40;;;;;;;28.14;31.89;94795.97;10313295;28;20568;-72
2021/08/22 15:52:17;;;;;;;8.27;3.33;;;;;;;28.01;31.88;94798.25;10330260;28;20272;-72
2021/08/22 15:57:21;;;;;;;5.10;3.60;;;;;;;28.03;32.17;94790.34;10329408;28;20462;-72
2021/08/22 16:02:21;;;;;;;5.88;3.50;;;;;;;27.99;32.55;94788.72;10328713;28;20073;-72
2021/08/22 16:07:21;;;;;;;6.45;3.65;;;;;;;27.88;32.85;94794.97;10328902;28;20582;-72
2021/08/22 16:12:22;;;;;;;8.03;4.83;;;;;;;27.78;33.13;94792.91;10328846;28;20038;-72
2021/08/22 16:17:22;;;;;;;9.00;4.88;;;;;;;27.69;33.47;94795.22;10327272;28;20022;-72
2021/08/22 16:22:23;;;;;;;4.63;3.33;;;;;;;27.66;32.94;94793.22;10326851;28;20034;-72
2021/08/22 16:27:23;;;;;;;6.93;3.88;;;;;;;27.54;33.17;94792.34;10327111;28;20025;-72
2021/08/22 16:32:23;;;;;;;6.13;3.33;;;;;;;27.48;33.36;94810.44;10327985;28;20034;-72
2021/08/22 16:37:24;;;;;;;5.47;3.70;;;;;;;27.36;34.09;94816.22;10327498;28;20023;-72
2021/08/22 16:42:24;;;;;;;5.75;3.50;;;;;;;27.27;34.18;94811.78;10327438;28;20027;-72
2021/08/22 16:47:25;;;;;;;5.50;4.20;;;;;;;27.16;34.22;94818.38;10327042;28;20027;-72
2021/08/22 16:52:27;;;;;;;13.20;5.00;;;;;;;26.99;35.00;94823.31;10326627;28;20025;-72
2021/08/22 16:57:28;;;;;;;80.57;32.90;;;;;;;26.89;35.24;94810.19;10309662;28;20034;-71
2021/08/22 17:02:32;;;;;;;128.75;55.10;;;;;;;26.72;35.50;94812.38;10326109;28;20404;-71
2021/08/22 17:07:32;;;;;;;23.45;7.88;;;;;;;26.61;35.91;94828.75;10326096;28;20394;-71
2021/08/22 17:12:36;;;;;;;8.60;4.03;;;;;;;26.54;36.53;94834.16;10326325;28;20026;-71
2021/08/22 17:17:37;;;;;;;8.10;5.00;;;;;;;26.43;36.87;94834.03;10325500;28;20080;-71
2021/08/22 17:22:37;;;;;;;10.07;4.53;;;;;;;26.29;37.37;94828.31;10324833;28;20375;-71
2021/08/22 17:27:38;;;;;;;4.93;4.10;;;;;;;26.19;37.37;94834.47;10323390;28;20034;-70
2021/08/22 17:32:41;;;;;;;11.43;4.33;;;;;;;26.12;37.93;94848.13;10324607;28;20027;-71
2021/08/22 17:37:42;;;;;;;8.23;4.95;;;;;;;26.00;38.58;94849.91;10325310;28;20029;-71
2021/08/22 17:42:42;;;;;;;5.77;4.10;;;;;;;25.86;39.15;94855.19;10325866;28;20022;-71
2021/08/22 17:47:44;;;;;;;11.40;4.32;;;;;;;25.66;39.97;94866.28;10307967;28;20125;-71
2021/08/22 17:52:44;;;;;;;11.70;4.70;;;;;;;25.58;40.05;94875.56;10325567;28;20109;-72
2021/08/22 17:57:45;;;;;;;7.90;4.83;;;;;;;25.52;40.00;94877.00;10325624;28;20027;-71
2021/08/22 18:02:45;;;;;;;9.20;4.23;;;;;;;25.41;40.98;94877.63;10325485;28;20034;-72
2021/08/22 18:07:46;;;;;;;8.38;5.00;;;;;;;25.35;42.19;94875.53;10325312;28;20188;-72
2021/08/22 18:12:46;;;;;;;14.63;5.60;;;;;;;25.17;44.01;94884.19;10325518;28;20041;-72
2021/08/22 18:17:46;;;;;;;13.23;5.50;;;;;;;24.94;44.73;94881.41;10325151;28;20029;-72
2021/08/22 18:22:47;;;;;;;8.17;5.30;;;;;;;24.58;44.66;94886.91;10325062;28;20489;-72
2021/08/22 18:27:49;;;;;;;12.35;9.15;;;;;;;24.62;45.75;94891.75;10325240;28;20034;-72
2021/08/22 18:32:49;;;;;;;6.70;4.95;;;;;;;24.38;45.37;94894.34;10307428;28;20030;-71
2021/08/22 18:37:49;;;;;;;10.27;5.20;;;;;;;24.28;45.65;94905.88;10325003;28;20030;-71
2021/08/22 18:42:51;;;;;;;7.90;5.33;;;;;;;24.08;46.53;94906.97;10330000;28;20241;-72
2021/08/22 18:47:52;;;;;;;11.73;5.32;;;;;;;23.99;46.74;94913.44;10342558;28;20039;-72
2021/08/22 18:52:53;;;;;;;10.13;4.88;;;;;;;23.86;47.33;94922.88;10332668;28;20040;-71
2021/08/22 18:57:54;;;;;;;12.05;7.25;;;;;;;23.75;49.44;94924.56;10332484;28;20472;-72
2021/08/22 19:02:54;;;;;;;11.50;5.60;;;;;;;23.79;50.97;94928.19;10353981;28;20026;-72
2021/08/22 19:07:54;;;;;;;10.73;6.30;;;;;;;23.72;51.58;94923.31;10372079;28;20666;-72
2021/08/22 19:12:55;;;;;;;8.80;6.47;;;;;;;23.63;52.28;94928.19;10372413;28;20033;-72
2021/08/22 19:17:55;;;;;;;12.63;6.50;;;;;;;23.47;54.55;94926.22;10372422;28;20438;-72
2021/08/22 19:22:55;;;;;;;11.53;6.60;;;;;;;23.34;56.28;94927.41;10371945;28;20025;-72
2021/08/22 19:27:57;;;;;;;15.52;7.40;;;;;;;23.08;56.36;94922.34;10371882;28;20804;-72
2021/08/22 19:32:58;;;;;;;10.45;5.78;;;;;;;22.96;58.69;94926.72;10372187;28;20481;-72
2021/08/22 19:37:59;;;;;;;11.03;6.17;;;;;;;22.95;56.60;94924.34;10361577;28;20018;-71
2021/08/22 19:43:00;;;;;;;13.68;6.90;;;;;;;22.77;55.01;94941.06;10307609;28;20114;-71
2021/08/22 19:48:01;;;;;;;8.70;6.10;;;;;;;22.70;54.78;94932.63;10290171;28;20504;-71
2021/08/22 19:53:02;;;;;;;6.27;5.33;;;;;;;22.70;55.03;94927.97;10287305;28;20114;-71
2021/08/22 19:58:02;;;;;;;7.18;4.90;;;;;;;22.55;55.22;94934.16;10288283;28;20034;-71
2021/08/22 20:03:03;;;;;;;6.70;5.47;;;;;;;22.34;55.99;94926.88;10289971;28;20027;-71
2021/08/22 20:08:03;;;;;;;12.13;5.30;;;;;;;22.19;56.88;94925.59;10288841;28;20586;-71
2021/08/22 20:13:04;;;;;;;9.32;5.70;;;;;;;22.06;58.17;94936.88;10302671;28;20069;-71
2021/08/22 20:18:05;;;;;;;8.87;5.37;;;;;;;22.05;57.31;94940.75;10289699;28;20482;-71
2021/08/22 20:23:07;;;;;;;6.55;5.13;;;;;;;22.03;58.40;94946.56;10288761;28;20027;-71
2021/08/22 20:28:07;;;;;;;9.32;5.95;;;;;;;21.99;59.06;94926.50;10288734;28;20089;-71
2021/08/22 20:33:09;;;;;;;12.27;5.40;;;;;;;21.85;59.31;94932.31;10288638;28;20402;-72
2021/08/22 20:38:10;;;;;;;9.18;5.20;;;;;;;21.74;60.52;94937.44;10299706;28;20108;-71
2021/08/22 20:43:11;;;;;;;8.83;4.80;;;;;;;21.43;62.68;94941.41;10328264;28;20116;-71
2021/08/22 20:48:11;;;;;;;8.00;4.88;;;;;;;20.86;69.98;94948.41;10328107;28;20042;-71
2021/08/22 20:53:11;;;;;;;6.23;5.37;;;;;;;20.57;73.23;94950.00;10328265;28;20437;-73
2021/08/22 20:58:12;;;;;;;8.82;5.60;;;;;;;20.46;74.18;94946.88;10328035;28;20349;-71
2021/08/22 21:03:15;;;;;;;7.53;4.97;;;;;;;20.38;74.73;94949.66;10327483;28;20022;-71
2021/08/22 21:08:15;;;;;;;8.63;5.57;;;;;;;20.41;74.03;94951.72;10327411;28;20046;-71
2021/08/22 21:13:16;;;;;;;8.00;4.40;;;;;;;20.53;71.90;94960.00;10327551;28;20031;-71
2021/08/22 21:18:17;;;;;;;9.23;5.07;;;;;;;20.65;72.18;94978.38;10326101;28;20486;-71
2021/08/22 21:23:17;;;;;;;6.47;5.05;;;;;;;20.56;73.67;94975.72;10327331;28;20274;-71
2021/08/22 21:28:18;;;;;;;8.45;5.28;;;;;;;20.51;74.74;94978.63;10326548;28;20026;-71
2021/08/22 21:33:18;;;;;;;7.93;5.33;;;;;;;20.37;77.58;94987.06;10326788;28;20505;-71
2021/08/22 21:38:18;;;;;;;8.77;5.90;;;;;;;20.24;79.41;94994.34;10339510;28;20019;-72
2021/08/22 21:43:19;;;;;;;7.83;5.70;;;;;;;20.13;80.81;94995.84;10349467;28;20032;-73
2021/08/22 21:48:19;;;;;;;6.37;5.77;;;;;;;20.01;82.02;95006.66;10366977;28;20117;-72
2021/08/22 21:53:20;;;;;;;7.10;5.57;;;;;;;20.01;81.60;95014.84;10367556;28;20033;-72
2021/08/22 21:58:20;;;;;;;6.87;5.87;;;;;;;19.89;84.09;95002.69;10366394;28;20052;-72
2021/08/22 22:03:20;;;;;;;8.37;5.83;;;;;;;19.76;84.51;95004.47;10349346;28;20041;-72
2021/08/22 22:08:21;;;;;;;12.63;6.40;;;;;;;19.83;83.33;94997.72;10366628;28;20358;-72
2021/08/22 22:13:21;;;;;;;10.83;5.83;;;;;;;19.90;83.11;95006.19;10366769;28;20046;-72
2021/08/22 22:18:21;;;;;;;10.07;6.07;;;;;;;19.95;83.39;95003.28;10374466;28;20481;-72
2021/08/22 22:23:22;;;;;;;8.43;6.70;;;;;;;19.91;84.19;95014.06;10374775;28;20496;-72
2021/08/22 22:28:22;;;;;;;11.43;6.13;;;;;;;20.04;86.24;95019.63;10373679;28;20029;-72
2021/08/22 22:33:23;;;;;;;11.23;6.63;;;;;;;20.21;87.95;95013.31;10374008;28;20030;-72
2021/08/22 22:38:23;;;;;;;7.17;5.53;;;;;;;20.28;86.38;95022.59;10361218;28;20022;-72
2021/08/22 22:43:23;;;;;;;6.93;5.50;;;;;;;20.31;85.68;95016.47;10333084;28;21117;-72
2021/08/22 22:48:24;;;;;;;7.03;5.43;;;;;;;20.37;86.71;95008.88;10332539;28;20364;-72
2021/08/22 22:53:25;;;;;;;11.33;5.73;;;;;;;20.39;87.10;95011.31;10333541;28;20290;-72
2021/08/22 22:58:25;;;;;;;8.05;5.90;;;;;;;20.39;88.63;95017.56;10332437;28;20080;-72
2021/08/22 23:03:25;;;;;;;6.90;5.37;;;;;;;20.35;90.53;95018.56;10332208;28;20087;-72
2021/08/22 23:08:27;;;;;;;14.27;5.97;;;;;;;20.39;91.27;95025.75;10332128;28;20297;-72
2021/08/22 23:13:28;;;;;;;9.13;5.55;;;;;;;20.29;93.63;95017.94;10316235;28;20046;-72
2021/08/22 23:18:28;;;;;;;11.60;6.30;;;;;;;20.22;95.33;95020.38;10291481;28;20054;-72